METARs

EEEI - Ämari Air Base

EEEI 161150Z 01013KT 9999 FEW047 30/13 Q1014 NOSIG

EEKA - Kärdla

EEKA 170850Z 03008KT 340V070 CAVOK 23/19 Q1014

EEKE - Kuressaare

EEKE 170850Z 09011KT 030V100 CAVOK 29/14 Q1012

EEPU - Pärnu

EEPU 170850Z 06009KT 020V120 CAVOK 29/14 Q1012

EETN - Lennart Meri Tallinn

EETN 170850Z 04010KT CAVOK 28/17 Q1014 NOSIG

EETU - Tartu

EETU 170850Z 07012KT 030V100 CAVOK 28/14 Q1013

Sign In

ATC Booking

currently no ATC Bookings...